createdAt,value
2018-01-30T00:01:11.457Z,2.53
2018-01-30T00:03:39.721Z,3.23
2018-01-30T00:06:08.151Z,3.57
2018-01-30T00:08:36.381Z,3.80
2018-01-30T00:11:05.431Z,3.53
2018-01-30T00:13:33.674Z,4.00
2018-01-30T00:16:01.943Z,4.57
2018-01-30T00:18:30.199Z,4.60
2018-01-30T00:20:58.446Z,4.57
2018-01-30T00:23:26.684Z,5.70
2018-01-30T00:25:55.809Z,5.47
2018-01-30T00:28:24.060Z,6.47
2018-01-30T00:30:52.313Z,6.10
2018-01-30T00:33:20.631Z,7.40
2018-01-30T00:35:48.882Z,7.87
2018-01-30T00:38:17.174Z,9.40
2018-01-30T00:40:45.434Z,11.03
2018-01-30T00:43:13.714Z,11.17
2018-01-30T00:45:41.979Z,11.90
2018-01-30T00:48:10.233Z,13.07
2018-01-30T00:50:38.494Z,11.97
2018-01-30T00:53:07.523Z,12.80
2018-01-30T00:55:35.794Z,12.93
2018-01-30T00:58:04.047Z,13.23
2018-01-30T01:00:32.328Z,12.70
2018-01-30T01:03:00.573Z,12.63
2018-01-30T01:05:29.605Z,13.03
2018-01-30T01:07:57.858Z,13.33
2018-01-30T01:10:26.947Z,13.37
2018-01-30T01:12:55.222Z,14.47
2018-01-30T01:15:24.243Z,15.37
2018-01-30T01:17:52.480Z,15.23
2018-01-30T01:20:21.539Z,16.87
2018-01-30T01:22:49.808Z,17.63
2018-01-30T01:25:18.071Z,17.53
2018-01-30T01:27:46.319Z,19.77
2018-01-30T01:30:14.566Z,20.70
2018-01-30T01:32:43.616Z,19.73
2018-01-30T01:35:11.898Z,19.20
2018-01-30T01:37:40.261Z,20.60
2018-01-30T01:40:08.538Z,22.57
2018-01-30T01:42:36.820Z,22.57
2018-01-30T01:45:05.078Z,23.53
2018-01-30T01:47:33.342Z,25.13
2018-01-30T01:50:01.618Z,25.73
2018-01-30T01:52:29.920Z,25.00
2018-01-30T01:54:58.178Z,27.33
2018-01-30T01:57:26.443Z,26.97
2018-01-30T01:59:54.701Z,26.17
2018-01-30T02:02:23.763Z,26.53
2018-01-30T02:04:52.039Z,29.53
2018-01-30T02:07:21.803Z,25.10
2018-01-30T02:09:50.082Z,27.83
2018-01-30T02:12:18.330Z,30.43
2018-01-30T02:14:47.349Z,30.93
2018-01-30T02:17:15.632Z,28.67
2018-01-30T02:19:43.960Z,26.80
2018-01-30T02:22:12.994Z,27.83
2018-01-30T02:24:41.245Z,32.10
2018-01-30T02:27:09.542Z,29.77
2018-01-30T02:29:37.891Z,27.57
2018-01-30T02:32:06.270Z,30.60
2018-01-30T02:34:34.530Z,29.77
2018-01-30T02:39:47.595Z,34.87
2018-01-30T02:42:15.865Z,32.97
2018-01-30T02:44:44.118Z,31.53
2018-01-30T02:47:13.146Z,34.10
2018-01-30T02:49:41.386Z,31.37
2018-01-30T02:52:10.431Z,31.07
2018-01-30T02:54:38.781Z,30.13
2018-01-30T02:57:07.048Z,29.37
2018-01-30T02:59:35.313Z,29.77
2018-01-30T03:02:04.376Z,30.73
2018-01-30T03:04:33.395Z,30.00
2018-01-30T03:07:02.430Z,31.53
2018-01-30T03:09:30.800Z,30.43
2018-01-30T03:11:59.268Z,31.27
2018-01-30T03:14:27.556Z,31.03
2018-01-30T03:16:55.799Z,30.83
2018-01-30T03:19:24.089Z,30.33
2018-01-30T03:21:53.098Z,29.37
2018-01-30T03:24:21.457Z,30.50
2018-01-30T03:26:49.705Z,26.10
2018-01-30T03:29:18.732Z,29.50
2018-01-30T03:31:47.018Z,29.30
2018-01-30T03:34:15.269Z,28.47
2018-01-30T03:36:43.505Z,27.20
2018-01-30T03:39:11.770Z,28.13
2018-01-30T03:41:40.166Z,28.50
2018-01-30T03:44:09.191Z,28.80
2018-01-30T03:46:37.466Z,28.70
2018-01-30T03:49:05.722Z,27.13
2018-01-30T03:51:34.738Z,27.07
2018-01-30T03:54:03.049Z,27.47
2018-01-30T03:56:31.306Z,26.03
2018-01-30T03:58:59.548Z,28.13
2018-01-30T04:01:27.827Z,28.47
2018-01-30T04:03:56.074Z,27.00
2018-01-30T04:06:25.115Z,28.50
2018-01-30T04:08:53.346Z,29.20
2018-01-30T04:11:22.386Z,26.03
2018-01-30T04:13:50.630Z,27.33
2018-01-30T04:16:18.995Z,30.67
2018-01-30T04:18:48.028Z,27.30
2018-01-30T04:21:16.306Z,30.10
2018-01-30T04:23:44.551Z,29.57
2018-01-30T04:26:12.838Z,28.73
2018-01-30T04:28:41.110Z,29.17
2018-01-30T04:31:09.474Z,28.80
2018-01-30T04:33:37.795Z,28.93
2018-01-30T04:36:06.050Z,27.40
2018-01-30T04:38:34.326Z,30.00
2018-01-30T04:41:02.606Z,30.97
2018-01-30T04:43:30.902Z,30.23
2018-01-30T04:45:59.271Z,28.63
2018-01-30T04:48:27.577Z,29.50
2018-01-30T04:50:55.802Z,29.50
2018-01-30T04:53:24.129Z,29.33
2018-01-30T04:55:52.341Z,29.43
2018-01-30T04:58:20.585Z,29.27
2018-01-30T05:00:49.626Z,26.40
2018-01-30T05:03:17.894Z,26.17
2018-01-30T05:05:46.164Z,27.93
2018-01-30T05:08:14.425Z,28.23
2018-01-30T05:10:42.714Z,29.73
2018-01-30T05:13:10.996Z,28.50
2018-01-30T05:15:39.275Z,25.63
2018-01-30T05:18:07.539Z,26.30
2018-01-30T05:20:35.834Z,28.13
2018-01-30T05:23:04.114Z,26.23
2018-01-30T05:25:32.366Z,23.67
2018-01-30T05:28:00.618Z,28.43
2018-01-30T05:30:28.894Z,27.87
2018-01-30T05:32:57.165Z,24.30
2018-01-30T05:35:26.194Z,27.03
2018-01-30T05:37:55.977Z,26.07
2018-01-30T05:40:24.262Z,27.37
2018-01-30T05:42:52.533Z,26.83
2018-01-30T05:45:20.799Z,27.83
2018-01-30T05:47:49.066Z,24.53
2018-01-30T05:50:17.391Z,24.73
2018-01-30T05:52:45.798Z,25.13
2018-01-30T05:55:14.063Z,24.73
2018-01-30T05:57:42.310Z,25.97
2018-01-30T06:00:10.562Z,30.13
2018-01-30T06:02:38.846Z,26.80
2018-01-30T06:05:07.115Z,27.17
2018-01-30T06:07:35.359Z,27.70
2018-01-30T06:10:04.401Z,29.37
2018-01-30T06:12:32.659Z,28.17
2018-01-30T06:15:00.985Z,29.13
2018-01-30T06:17:29.262Z,29.83
2018-01-30T06:19:57.792Z,28.67
2018-01-30T06:22:26.789Z,30.33
2018-01-30T06:24:55.198Z,27.07
2018-01-30T06:27:23.453Z,25.87
2018-01-30T06:29:51.706Z,28.17
2018-01-30T06:32:19.970Z,26.47
2018-01-30T06:34:48.270Z,27.87
2018-01-30T06:37:16.521Z,25.93
2018-01-30T06:39:44.815Z,27.13
2018-01-30T06:42:13.107Z,27.60
2018-01-30T06:44:41.366Z,26.70
2018-01-30T06:47:09.647Z,27.20
2018-01-30T06:49:37.959Z,23.57
2018-01-30T06:52:06.219Z,26.43
2018-01-30T06:54:34.474Z,28.63
2018-01-30T06:57:02.731Z,26.53
2018-01-30T06:59:31.183Z,26.90
2018-01-30T07:02:00.214Z,28.70
2018-01-30T07:04:28.488Z,26.80
2018-01-30T07:06:56.757Z,28.93
2018-01-30T07:09:25.024Z,27.83
2018-01-30T07:11:53.351Z,28.63
2018-01-30T07:14:21.622Z,28.77
2018-01-30T07:16:49.861Z,28.07
2018-01-30T07:19:18.118Z,27.93
2018-01-30T07:21:46.476Z,27.80
2018-01-30T07:24:15.501Z,30.23
2018-01-30T07:26:43.774Z,28.50
2018-01-30T07:29:12.027Z,31.53
2018-01-30T07:31:41.038Z,31.13
2018-01-30T07:34:09.313Z,33.10
2018-01-30T07:36:37.780Z,33.43
2018-01-30T07:39:06.060Z,33.03
2018-01-30T07:41:34.310Z,33.73
2018-01-30T07:44:03.380Z,33.23
2018-01-30T07:46:31.625Z,34.50
2018-01-30T07:48:59.905Z,36.50
2018-01-30T07:51:28.172Z,34.13
2018-01-30T07:53:59.055Z,34.30
2018-01-30T07:56:29.033Z,35.47
2018-01-30T07:58:57.274Z,38.03
2018-01-30T08:01:25.555Z,33.90
2018-01-30T08:03:53.885Z,36.97
2018-01-30T08:06:22.913Z,39.20
2018-01-30T08:08:51.185Z,39.50
2018-01-30T08:11:19.434Z,38.87
2018-01-30T08:13:48.522Z,43.40
2018-01-30T08:16:16.815Z,41.70
2018-01-30T08:18:45.106Z,40.70
2018-01-30T08:21:13.386Z,43.13
2018-01-30T08:23:41.667Z,47.40
2018-01-30T08:26:09.978Z,45.40
2018-01-30T08:28:38.330Z,47.97
2018-01-30T08:31:06.692Z,45.57
2018-01-30T08:33:34.946Z,41.80
2018-01-30T08:36:03.974Z,50.30
2018-01-30T08:38:32.296Z,47.40
2018-01-30T08:41:01.483Z,48.83
2018-01-30T08:43:30.532Z,53.47
2018-01-30T08:45:58.785Z,47.47
2018-01-30T08:48:27.062Z,48.33
2018-01-30T08:50:56.066Z,44.80
2018-01-30T08:53:24.315Z,43.53
2018-01-30T08:55:53.498Z,43.73
2018-01-30T08:58:21.797Z,44.03
2018-01-30T09:00:50.036Z,42.87
2018-01-30T09:03:18.310Z,42.77
2018-01-30T09:05:46.584Z,41.83
2018-01-30T09:08:14.925Z,41.73
2018-01-30T09:10:43.195Z,41.10
2018-01-30T09:13:11.485Z,39.87
2018-01-30T09:15:39.786Z,40.67
2018-01-30T09:18:08.190Z,40.23
2018-01-30T09:20:37.233Z,40.57
2018-01-30T09:23:05.478Z,42.43
2018-01-30T09:25:33.753Z,36.03
2018-01-30T09:28:02.009Z,37.30
2018-01-30T09:30:31.041Z,35.77
2018-01-30T09:32:59.307Z,37.77
2018-01-30T09:35:27.608Z,37.13
2018-01-30T09:37:55.997Z,39.40
2018-01-30T09:40:24.241Z,38.93
2018-01-30T09:42:52.516Z,42.73
2018-01-30T09:45:20.902Z,38.23
2018-01-30T09:47:49.166Z,36.90
2018-01-30T09:50:17.420Z,36.60
2018-01-30T09:52:45.703Z,35.70
2018-01-30T09:55:16.603Z,38.93
2018-01-30T09:57:45.627Z,36.43
2018-01-30T10:02:54.314Z,38.90
2018-01-30T10:05:22.570Z,38.70
2018-01-30T10:07:50.824Z,39.17
2018-01-30T10:10:19.120Z,36.13
2018-01-30T10:12:47.469Z,38.50
2018-01-30T10:15:15.894Z,37.27
2018-01-30T10:17:44.134Z,36.57
2018-01-30T10:20:12.406Z,38.93
2018-01-30T10:22:40.758Z,35.90
2018-01-30T10:25:09.191Z,34.27
2018-01-30T10:27:38.368Z,34.47
2018-01-30T10:30:06.698Z,32.37
2018-01-30T10:32:35.768Z,36.37
2018-01-30T10:35:04.830Z,35.73
2018-01-30T10:37:33.071Z,35.87
2018-01-30T10:40:01.326Z,37.43
2018-01-30T10:42:30.380Z,39.23
2018-01-30T10:44:58.639Z,38.13
2018-01-30T10:47:26.902Z,38.00
2018-01-30T10:49:55.181Z,39.23
2018-01-30T10:52:23.437Z,39.17
2018-01-30T10:54:51.728Z,40.07
2018-01-30T10:57:20.714Z,39.87
2018-01-30T10:59:48.994Z,38.37
2018-01-30T11:02:17.313Z,40.77
2018-01-30T11:04:45.515Z,38.50
2018-01-30T11:07:14.532Z,37.83
2018-01-30T11:09:42.785Z,34.73
2018-01-30T11:12:11.063Z,33.67
2018-01-30T11:14:40.085Z,35.13
2018-01-30T11:17:08.421Z,33.13
2018-01-30T11:19:37.693Z,31.80
2018-01-30T11:22:05.974Z,34.50
2018-01-30T11:24:34.235Z,30.77
2018-01-30T11:27:02.514Z,28.80
2018-01-30T11:29:30.778Z,31.07
2018-01-30T11:31:59.030Z,30.87
2018-01-30T11:34:27.291Z,30.60
2018-01-30T11:36:55.537Z,28.33
2018-01-30T11:39:24.590Z,28.60
2018-01-30T11:41:52.890Z,27.17
2018-01-30T11:44:21.173Z,27.67
2018-01-30T11:46:49.394Z,27.77
2018-01-30T11:49:17.789Z,26.60
2018-01-30T11:51:46.230Z,28.97
2018-01-30T11:54:14.494Z,26.20
2018-01-30T11:56:43.572Z,28.10
2018-01-30T11:59:11.800Z,28.03
2018-01-30T12:01:40.076Z,26.83
2018-01-30T12:04:08.492Z,27.73
2018-01-30T12:06:38.261Z,25.00
2018-01-30T12:09:06.534Z,24.20
2018-01-30T12:11:34.860Z,27.40
2018-01-30T12:14:03.872Z,24.40
2018-01-30T12:16:32.204Z,27.17
2018-01-30T12:19:00.493Z,25.27
2018-01-30T12:21:28.974Z,26.30
2018-01-30T12:23:57.265Z,25.60
2018-01-30T12:26:26.278Z,26.27
2018-01-30T12:28:54.529Z,26.07
2018-01-30T12:31:23.606Z,26.27
2018-01-30T12:33:51.870Z,26.70
2018-01-30T12:36:20.124Z,27.07
2018-01-30T12:38:48.408Z,26.93
2018-01-30T12:41:16.749Z,26.40
2018-01-30T12:43:45.021Z,25.63
2018-01-30T12:46:13.314Z,25.10
2018-01-30T12:48:41.683Z,24.83
2018-01-30T12:51:09.965Z,22.30
2018-01-30T12:53:38.238Z,24.93
2018-01-30T12:56:06.512Z,24.20
2018-01-30T12:58:34.813Z,25.20
2018-01-30T13:01:04.527Z,23.43
2018-01-30T13:03:32.842Z,21.13
2018-01-30T13:06:01.207Z,21.70
2018-01-30T13:08:30.226Z,20.17
2018-01-30T13:10:58.515Z,19.67
2018-01-30T13:13:26.767Z,20.30
2018-01-30T13:15:55.100Z,19.23
2018-01-30T13:18:23.419Z,21.57
2018-01-30T13:20:51.681Z,19.80
2018-01-30T13:23:20.726Z,19.30
2018-01-30T13:25:48.989Z,19.17
2018-01-30T13:28:17.254Z,17.87
2018-01-30T13:30:45.503Z,17.03
2018-01-30T13:33:14.554Z,16.57
2018-01-30T13:35:43.067Z,16.13
2018-01-30T13:38:11.294Z,16.67
2018-01-30T13:40:39.545Z,15.80
2018-01-30T13:43:07.857Z,16.33
2018-01-30T13:45:36.200Z,15.87
2018-01-30T13:48:04.482Z,14.93
2018-01-30T13:50:32.734Z,13.80
2018-01-30T13:53:01.001Z,12.77
2018-01-30T13:55:30.019Z,12.57
2018-01-30T13:58:04.509Z,12.77
2018-01-30T14:00:32.744Z,13.27
2018-01-30T14:03:01.082Z,13.43
2018-01-30T14:05:29.414Z,13.33
2018-01-30T14:07:57.699Z,14.03
2018-01-30T14:10:25.949Z,14.97
2018-01-30T14:12:54.190Z,14.90
2018-01-30T14:15:22.457Z,14.93
2018-01-30T14:17:50.718Z,15.50
2018-01-30T14:20:19.749Z,16.50
2018-01-30T14:22:48.021Z,17.87
2018-01-30T14:25:16.296Z,18.47
2018-01-30T14:27:44.559Z,17.97
2018-01-30T14:30:13.115Z,15.73
2018-01-30T14:32:42.148Z,16.97
2018-01-30T14:35:10.530Z,15.87
2018-01-30T14:37:38.804Z,12.70
2018-01-30T14:40:07.088Z,13.87
2018-01-30T14:42:35.368Z,14.03
2018-01-30T14:45:03.627Z,13.87
2018-01-30T14:47:31.928Z,11.70
2018-01-30T14:50:00.198Z,10.90
2018-01-30T14:52:28.558Z,11.40
2018-01-30T14:54:56.811Z,11.93
2018-01-30T14:57:25.084Z,11.67
2018-01-30T14:59:53.386Z,12.17
2018-01-30T15:02:21.927Z,12.57
2018-01-30T15:04:50.187Z,12.63
2018-01-30T15:07:19.258Z,12.50
2018-01-30T15:09:47.703Z,12.80
2018-01-30T15:12:16.216Z,12.33
2018-01-30T15:14:44.468Z,12.13
2018-01-30T15:17:12.726Z,11.87
2018-01-30T15:19:40.993Z,12.33
2018-01-30T15:22:09.256Z,12.77
2018-01-30T15:24:37.520Z,11.83
2018-01-30T15:27:07.125Z,11.87
2018-01-30T15:29:39.015Z,13.17
2018-01-30T15:32:07.612Z,13.77
2018-01-30T15:34:35.921Z,12.43
2018-01-30T15:37:04.957Z,13.70
2018-01-30T15:39:33.261Z,13.80
2018-01-30T15:42:01.513Z,15.20
2018-01-30T15:44:29.770Z,15.43
2018-01-30T15:46:58.051Z,17.03
2018-01-30T15:49:26.329Z,17.57
2018-01-30T15:51:54.607Z,18.53
2018-01-30T15:54:27.391Z,20.13
2018-01-30T15:56:55.663Z,22.07
2018-01-30T15:59:23.923Z,23.53
2018-01-30T16:01:52.185Z,25.07
2018-01-30T16:04:21.218Z,24.50
2018-01-30T16:06:49.478Z,26.37
2018-01-30T16:09:17.765Z,19.80
2018-01-30T16:11:46.014Z,18.57
2018-01-30T16:14:14.306Z,17.90
2018-01-30T16:16:42.582Z,21.83
2018-01-30T16:19:10.914Z,25.27
2018-01-30T16:21:39.967Z,21.03
2018-01-30T16:24:08.228Z,19.93
2018-01-30T16:26:36.521Z,19.80
2018-01-30T16:29:04.823Z,20.37
2018-01-30T16:31:33.078Z,19.93
2018-01-30T16:34:01.374Z,19.83
2018-01-30T16:36:29.634Z,23.97
2018-01-30T16:38:57.969Z,22.67
2018-01-30T16:41:26.206Z,21.23
2018-01-30T16:43:55.268Z,20.23
2018-01-30T16:46:23.638Z,21.10
2018-01-30T16:48:51.866Z,21.80
2018-01-30T16:51:20.922Z,21.77
2018-01-30T16:53:49.184Z,23.00
2018-01-30T16:56:17.642Z,23.70
2018-01-30T16:58:45.958Z,21.83
2018-01-30T17:01:14.379Z,22.97
2018-01-30T17:03:42.670Z,22.57
2018-01-30T17:06:11.128Z,22.80
2018-01-30T17:08:39.535Z,22.97
2018-01-30T17:11:07.774Z,22.33
2018-01-30T17:13:36.029Z,21.80
2018-01-30T17:16:04.731Z,22.90
2018-01-30T17:18:33.775Z,23.87
2018-01-30T17:21:02.182Z,23.30
2018-01-30T17:23:30.451Z,23.83
2018-01-30T17:25:58.814Z,23.47
2018-01-30T17:28:27.080Z,23.97
2018-01-30T17:30:55.382Z,25.07
2018-01-30T17:33:23.674Z,29.17
2018-01-30T17:35:52.730Z,42.73
2018-01-30T17:38:20.994Z,31.50
2018-01-30T17:40:49.264Z,25.83
2018-01-30T17:43:17.601Z,23.10
2018-01-30T17:45:45.974Z,22.53
2018-01-30T17:48:15.551Z,21.43
2018-01-30T17:50:43.886Z,22.87
2018-01-30T17:53:12.168Z,23.63
2018-01-30T17:55:40.447Z,22.40
2018-01-30T17:58:08.688Z,21.93
2018-01-30T18:00:36.978Z,21.53
2018-01-30T18:03:05.278Z,20.97
2018-01-30T18:05:33.559Z,20.07
2018-01-30T18:08:01.825Z,21.47
2018-01-30T18:10:30.177Z,20.43
2018-01-30T18:12:58.446Z,21.10
2018-01-30T18:15:26.727Z,22.97
2018-01-30T18:17:54.994Z,24.97
2018-01-30T18:20:23.410Z,25.27
2018-01-30T18:22:51.710Z,24.43
2018-01-30T18:25:20.034Z,23.00
2018-01-30T18:27:48.303Z,23.73
2018-01-30T18:30:16.604Z,23.67
2018-01-30T18:32:44.861Z,23.17
2018-01-30T18:35:13.133Z,23.27
2018-01-30T18:37:41.404Z,24.27
2018-01-30T18:40:09.670Z,24.00
2018-01-30T18:42:38.014Z,23.43
2018-01-30T18:45:07.083Z,22.13
2018-01-30T18:47:35.343Z,22.57
2018-01-30T18:50:03.638Z,23.57
2018-01-30T18:52:31.900Z,21.33
2018-01-30T18:55:00.412Z,20.87
2018-01-30T18:57:28.704Z,22.30
2018-01-30T18:59:57.734Z,21.57
2018-01-30T19:02:26.114Z,21.07
2018-01-30T19:04:54.392Z,20.87
2018-01-30T19:07:22.684Z,21.60
2018-01-30T19:09:51.013Z,19.70
2018-01-30T19:12:20.053Z,20.43
2018-01-30T19:14:48.327Z,21.23
2018-01-30T19:17:16.658Z,21.57
2018-01-30T19:19:44.908Z,21.30
2018-01-30T19:22:13.334Z,20.50
2018-01-30T19:24:41.606Z,20.87
2018-01-30T19:27:09.890Z,21.87
2018-01-30T19:29:38.154Z,22.30
2018-01-30T19:32:06.472Z,22.90
2018-01-30T19:34:34.788Z,22.40
2018-01-30T19:37:03.103Z,21.07
2018-01-30T19:39:44.218Z,20.80
2018-01-30T19:42:13.263Z,20.20
2018-01-30T19:44:41.529Z,21.30
2018-01-30T19:47:09.819Z,21.13
2018-01-30T19:49:38.127Z,20.97
2018-01-30T19:52:06.441Z,21.27
2018-01-30T19:54:34.973Z,21.90
2018-01-30T19:57:03.271Z,20.53
2018-01-30T19:59:31.587Z,20.37
2018-01-30T20:01:59.848Z,22.20
2018-01-30T20:04:28.204Z,21.90
2018-01-30T20:06:56.563Z,22.37
2018-01-30T20:09:24.816Z,22.57
2018-01-30T20:11:53.095Z,21.87
2018-01-30T20:14:21.459Z,22.30
2018-01-30T20:16:49.771Z,22.53
2018-01-30T20:19:18.092Z,23.63
2018-01-30T20:21:46.390Z,24.43
2018-01-30T20:24:14.665Z,22.60
2018-01-30T20:26:42.959Z,20.70
2018-01-30T20:29:11.208Z,21.43
2018-01-30T20:31:39.528Z,21.33
2018-01-30T20:34:07.807Z,20.43
2018-01-30T20:36:36.043Z,19.07
2018-01-30T20:39:04.311Z,20.03
2018-01-30T20:41:32.574Z,20.17
2018-01-30T20:44:00.870Z,19.43
2018-01-30T20:46:29.154Z,20.50
2018-01-30T20:48:57.421Z,22.47
2018-01-30T20:51:25.716Z,22.93
2018-01-30T20:53:53.959Z,18.80
2018-01-30T20:56:22.236Z,18.37
2018-01-30T20:58:50.543Z,20.47
2018-01-30T21:01:20.224Z,19.03
2018-01-30T21:03:48.590Z,22.03
2018-01-30T21:06:16.880Z,21.63
2018-01-30T21:08:45.208Z,23.80
2018-01-30T21:11:13.466Z,21.70
2018-01-30T21:13:47.546Z,31.73
2018-01-30T21:16:15.819Z,25.30
2018-01-30T21:18:44.103Z,29.87
2018-01-30T21:21:12.439Z,24.03
2018-01-30T21:23:40.769Z,24.17
2018-01-30T21:26:09.023Z,18.77
2018-01-30T21:28:37.346Z,19.03
2018-01-30T21:31:05.609Z,19.23
2018-01-30T21:33:34.635Z,16.63
2018-01-30T21:36:03.034Z,13.93
2018-01-30T21:38:31.323Z,15.20
2018-01-30T21:40:59.635Z,16.60
2018-01-30T21:43:27.970Z,14.33
2018-01-30T21:45:57.045Z,15.37
2018-01-30T21:48:25.312Z,23.00
2018-01-30T21:50:53.575Z,21.97
2018-01-30T21:53:21.891Z,18.67
2018-01-30T21:55:50.156Z,16.93
2018-01-30T21:58:18.443Z,20.17
2018-01-30T22:00:46.749Z,15.57
2018-01-30T22:03:14.992Z,15.00
2018-01-30T22:05:43.251Z,16.43
2018-01-30T22:08:11.523Z,13.50
2018-01-30T22:10:39.771Z,16.20
2018-01-30T22:13:08.071Z,14.93
2018-01-30T22:15:36.339Z,16.20
2018-01-30T22:18:04.664Z,16.13
2018-01-30T22:20:33.807Z,14.23
2018-01-30T22:23:02.067Z,15.43
2018-01-30T22:25:30.325Z,12.10
2018-01-30T22:27:58.631Z,11.70
2018-01-30T22:30:26.870Z,12.90
2018-01-30T22:32:55.962Z,12.07
2018-01-30T22:35:33.520Z,12.00
2018-01-30T22:38:01.770Z,11.13
2018-01-30T22:40:30.030Z,11.10
2018-01-30T22:42:58.329Z,10.03
2018-01-30T22:45:26.590Z,11.20
